sensor_id;sensor_type;location;lat;lon;timestamp;P1;durP1;ratioP1;P2;durP2;ratioP2
30147;SDS011;16960;49.404;8.248;2022-08-19T00:00:51;19.97;;;18.03;;
30147;SDS011;16960;49.404;8.248;2022-08-19T00:03:17;19.20;;;17.47;;
30147;SDS011;16960;49.404;8.248;2022-08-19T00:05:44;20.70;;;18.90;;
30147;SDS011;16960;49.404;8.248;2022-08-19T00:08:11;20.73;;;18.83;;
30147;SDS011;16960;49.404;8.248;2022-08-19T00:10:38;20.60;;;18.47;;
30147;SDS011;16960;49.404;8.248;2022-08-19T00:13:05;21.07;;;19.17;;
30147;SDS011;16960;49.404;8.248;2022-08-19T00:15:34;19.37;;;17.57;;
30147;SDS011;16960;49.404;8.248;2022-08-19T00:18:01;20.53;;;18.73;;
30147;SDS011;16960;49.404;8.248;2022-08-19T00:20:28;20.40;;;18.33;;
30147;SDS011;16960;49.404;8.248;2022-08-19T00:22:54;20.07;;;18.13;;
30147;SDS011;16960;49.404;8.248;2022-08-19T00:25:22;21.23;;;19.10;;
30147;SDS011;16960;49.404;8.248;2022-08-19T00:27:49;23.07;;;20.67;;
30147;SDS011;16960;49.404;8.248;2022-08-19T00:30:16;21.27;;;19.27;;
30147;SDS011;16960;49.404;8.248;2022-08-19T00:32:44;21.80;;;19.80;;
30147;SDS011;16960;49.404;8.248;2022-08-19T00:35:12;21.30;;;19.30;;
30147;SDS011;16960;49.404;8.248;2022-08-19T00:37:39;20.70;;;18.80;;
30147;SDS011;16960;49.404;8.248;2022-08-19T00:40:09;21.20;;;19.30;;
30147;SDS011;16960;49.404;8.248;2022-08-19T00:42:38;21.60;;;19.50;;
30147;SDS011;16960;49.404;8.248;2022-08-19T00:45:09;20.30;;;18.20;;
30147;SDS011;16960;49.404;8.248;2022-08-19T00:47:38;21.27;;;19.37;;
30147;SDS011;16960;49.404;8.248;2022-08-19T00:50:07;22.20;;;20.00;;
30147;SDS011;16960;49.404;8.248;2022-08-19T00:52:36;22.17;;;19.87;;
30147;SDS011;16960;49.404;8.248;2022-08-19T00:55:10;21.03;;;19.13;;
30147;SDS011;16960;49.404;8.248;2022-08-19T00:57:42;24.27;;;20.63;;
30147;SDS011;16960;49.404;8.248;2022-08-19T01:00:13;20.23;;;18.33;;
30147;SDS011;16960;49.404;8.248;2022-08-19T01:02:41;21.73;;;19.80;;
30147;SDS011;16960;49.404;8.248;2022-08-19T01:05:11;21.67;;;19.60;;
30147;SDS011;16960;49.404;8.248;2022-08-19T01:07:43;21.83;;;19.83;;
30147;SDS011;16960;49.404;8.248;2022-08-19T01:10:12;22.50;;;20.50;;
30147;SDS011;16960;49.404;8.248;2022-08-19T01:12:41;21.57;;;19.53;;
30147;SDS011;16960;49.404;8.248;2022-08-19T01:15:10;21.47;;;19.53;;
30147;SDS011;16960;49.404;8.248;2022-08-19T01:17:40;21.40;;;19.50;;
30147;SDS011;16960;49.404;8.248;2022-08-19T01:20:12;22.80;;;20.50;;
30147;SDS011;16960;49.404;8.248;2022-08-19T01:22:44;20.60;;;18.60;;
30147;SDS011;16960;49.404;8.248;2022-08-19T01:25:14;21.73;;;19.83;;
30147;SDS011;16960;49.404;8.248;2022-08-19T01:27:47;21.40;;;19.50;;
30147;SDS011;16960;49.404;8.248;2022-08-19T01:30:16;21.60;;;19.40;;
30147;SDS011;16960;49.404;8.248;2022-08-19T01:32:47;22.43;;;19.83;;
30147;SDS011;16960;49.404;8.248;2022-08-19T01:35:14;23.70;;;20.33;;
30147;SDS011;16960;49.404;8.248;2022-08-19T01:37:46;21.17;;;19.30;;
30147;SDS011;16960;49.404;8.248;2022-08-19T01:40:16;20.93;;;18.93;;
30147;SDS011;16960;49.404;8.248;2022-08-19T01:42:45;21.13;;;19.27;;
30147;SDS011;16960;49.404;8.248;2022-08-19T01:45:12;22.73;;;20.57;;
30147;SDS011;16960;49.404;8.248;2022-08-19T01:47:39;21.80;;;19.90;;
30147;SDS011;16960;49.404;8.248;2022-08-19T01:50:07;21.30;;;19.40;;
30147;SDS011;16960;49.404;8.248;2022-08-19T01:52:37;22.20;;;20.10;;
30147;SDS011;16960;49.404;8.248;2022-08-19T01:55:07;22.10;;;20.10;;
30147;SDS011;16960;49.404;8.248;2022-08-19T01:57:37;22.37;;;20.27;;
30147;SDS011;16960;49.404;8.248;2022-08-19T02:00:06;22.03;;;19.90;;
30147;SDS011;16960;49.404;8.248;2022-08-19T02:02:36;22.80;;;20.77;;
30147;SDS011;16960;49.404;8.248;2022-08-19T02:05:03;21.43;;;19.57;;
30147;SDS011;16960;49.404;8.248;2022-08-19T02:07:32;21.63;;;19.63;;
30147;SDS011;16960;49.404;8.248;2022-08-19T02:10:00;23.87;;;21.47;;
30147;SDS011;16960;49.404;8.248;2022-08-19T02:12:30;22.60;;;20.60;;
30147;SDS011;16960;49.404;8.248;2022-08-19T02:14:58;23.70;;;21.40;;
30147;SDS011;16960;49.404;8.248;2022-08-19T02:17:26;23.17;;;21.00;;
30147;SDS011;16960;49.404;8.248;2022-08-19T02:19:53;25.73;;;23.23;;
30147;SDS011;16960;49.404;8.248;2022-08-19T02:22:20;23.83;;;21.43;;
30147;SDS011;16960;49.404;8.248;2022-08-19T02:24:47;24.43;;;22.07;;
30147;SDS011;16960;49.404;8.248;2022-08-19T02:27:14;22.27;;;20.27;;
30147;SDS011;16960;49.404;8.248;2022-08-19T02:29:43;22.60;;;20.40;;
30147;SDS011;16960;49.404;8.248;2022-08-19T02:32:11;24.83;;;22.53;;
30147;SDS011;16960;49.404;8.248;2022-08-19T02:34:38;23.63;;;21.33;;
30147;SDS011;16960;49.404;8.248;2022-08-19T02:37:05;22.53;;;20.30;;
30147;SDS011;16960;49.404;8.248;2022-08-19T02:39:53;22.77;;;20.67;;
30147;SDS011;16960;49.404;8.248;2022-08-19T02:42:19;22.50;;;20.30;;
30147;SDS011;16960;49.404;8.248;2022-08-19T02:44:47;19.90;;;17.90;;
30147;SDS011;16960;49.404;8.248;2022-08-19T02:47:14;19.43;;;17.70;;
30147;SDS011;16960;49.404;8.248;2022-08-19T02:49:41;21.97;;;19.97;;
30147;SDS011;16960;49.404;8.248;2022-08-19T02:52:08;21.03;;;19.03;;
30147;SDS011;16960;49.404;8.248;2022-08-19T02:54:36;20.53;;;18.43;;
30147;SDS011;16960;49.404;8.248;2022-08-19T02:57:03;21.30;;;18.67;;
30147;SDS011;16960;49.404;8.248;2022-08-19T02:59:30;20.47;;;18.57;;
30147;SDS011;16960;49.404;8.248;2022-08-19T03:01:58;20.60;;;17.97;;
30147;SDS011;16960;49.404;8.248;2022-08-19T03:04:25;20.47;;;18.57;;
30147;SDS011;16960;49.404;8.248;2022-08-19T03:06:53;20.03;;;17.97;;
30147;SDS011;16960;49.404;8.248;2022-08-19T03:09:20;19.57;;;17.67;;
30147;SDS011;16960;49.404;8.248;2022-08-19T03:11:47;20.53;;;18.67;;
30147;SDS011;16960;49.404;8.248;2022-08-19T03:14:15;20.10;;;17.67;;
30147;SDS011;16960;49.404;8.248;2022-08-19T03:16:44;20.33;;;18.23;;
30147;SDS011;16960;49.404;8.248;2022-08-19T03:19:15;20.93;;;18.83;;
30147;SDS011;16960;49.404;8.248;2022-08-19T03:21:44;20.70;;;17.10;;
30147;SDS011;16960;49.404;8.248;2022-08-19T03:24:12;20.40;;;18.60;;
30147;SDS011;16960;49.404;8.248;2022-08-19T03:26:40;21.80;;;18.37;;
30147;SDS011;16960;49.404;8.248;2022-08-19T03:29:09;18.27;;;16.40;;
30147;SDS011;16960;49.404;8.248;2022-08-19T03:31:37;19.77;;;18.00;;
30147;SDS011;16960;49.404;8.248;2022-08-19T03:34:05;19.83;;;18.03;;
30147;SDS011;16960;49.404;8.248;2022-08-19T03:36:33;19.43;;;17.63;;
30147;SDS011;16960;49.404;8.248;2022-08-19T03:39:00;20.20;;;18.33;;
30147;SDS011;16960;49.404;8.248;2022-08-19T03:41:29;20.70;;;18.77;;
30147;SDS011;16960;49.404;8.248;2022-08-19T03:43:58;21.57;;;19.60;;
30147;SDS011;16960;49.404;8.248;2022-08-19T03:46:26;21.67;;;19.50;;
30147;SDS011;16960;49.404;8.248;2022-08-19T03:48:56;21.50;;;19.43;;
30147;SDS011;16960;49.404;8.248;2022-08-19T03:51:26;19.10;;;17.47;;
30147;SDS011;16960;49.404;8.248;2022-08-19T03:53:58;18.67;;;16.87;;
30147;SDS011;16960;49.404;8.248;2022-08-19T03:56:27;19.30;;;17.30;;
30147;SDS011;16960;49.404;8.248;2022-08-19T03:58:54;18.60;;;16.93;;
30147;SDS011;16960;49.404;8.248;2022-08-19T04:01:26;19.73;;;17.80;;
30147;SDS011;16960;49.404;8.248;2022-08-19T04:03:54;18.27;;;16.47;;
30147;SDS011;16960;49.404;8.248;2022-08-19T04:06:23;18.27;;;16.57;;
30147;SDS011;16960;49.404;8.248;2022-08-19T04:08:52;17.57;;;15.97;;
30147;SDS011;16960;49.404;8.248;2022-08-19T04:11:22;17.70;;;15.90;;
30147;SDS011;16960;49.404;8.248;2022-08-19T04:13:51;17.70;;;15.83;;
30147;SDS011;16960;49.404;8.248;2022-08-19T04:16:19;17.23;;;15.63;;
30147;SDS011;16960;49.404;8.248;2022-08-19T04:18:48;16.50;;;15.00;;
30147;SDS011;16960;49.404;8.248;2022-08-19T04:21:16;15.90;;;14.47;;
30147;SDS011;16960;49.404;8.248;2022-08-19T04:23:44;17.07;;;15.47;;
30147;SDS011;16960;49.404;8.248;2022-08-19T04:26:12;18.10;;;16.30;;
30147;SDS011;16960;49.404;8.248;2022-08-19T04:28:42;18.03;;;16.43;;
30147;SDS011;16960;49.404;8.248;2022-08-19T04:31:12;16.60;;;15.00;;
30147;SDS011;16960;49.404;8.248;2022-08-19T04:33:40;16.60;;;15.10;;
30147;SDS011;16960;49.404;8.248;2022-08-19T04:36:08;16.03;;;14.67;;
30147;SDS011;16960;49.404;8.248;2022-08-19T04:38:42;16.40;;;14.80;;
30147;SDS011;16960;49.404;8.248;2022-08-19T04:41:09;16.77;;;15.20;;
30147;SDS011;16960;49.404;8.248;2022-08-19T04:43:57;16.80;;;15.13;;
30147;SDS011;16960;49.404;8.248;2022-08-19T04:46:23;16.80;;;14.40;;
30147;SDS011;16960;49.404;8.248;2022-08-19T04:48:50;15.63;;;14.23;;
30147;SDS011;16960;49.404;8.248;2022-08-19T04:51:18;15.60;;;14.13;;
30147;SDS011;16960;49.404;8.248;2022-08-19T04:53:46;16.30;;;14.70;;
30147;SDS011;16960;49.404;8.248;2022-08-19T04:56:13;15.53;;;14.03;;
30147;SDS011;16960;49.404;8.248;2022-08-19T04:58:43;15.20;;;13.80;;
30147;SDS011;16960;49.404;8.248;2022-08-19T05:01:12;14.13;;;12.93;;
30147;SDS011;16960;49.404;8.248;2022-08-19T05:03:40;13.23;;;12.07;;
30147;SDS011;16960;49.404;8.248;2022-08-19T05:06:09;14.30;;;13.10;;
30147;SDS011;16960;49.404;8.248;2022-08-19T05:08:37;14.10;;;12.90;;
30147;SDS011;16960;49.404;8.248;2022-08-19T05:11:08;15.10;;;13.57;;
30147;SDS011;16960;49.404;8.248;2022-08-19T05:13:40;14.30;;;13.00;;
30147;SDS011;16960;49.404;8.248;2022-08-19T05:16:08;13.03;;;11.93;;
30147;SDS011;16960;49.404;8.248;2022-08-19T05:18:37;13.60;;;12.40;;
30147;SDS011;16960;49.404;8.248;2022-08-19T05:21:22;16.77;;;15.13;;
30147;SDS011;16960;49.404;8.248;2022-08-19T05:24:13;14.33;;;13.03;;
30147;SDS011;16960;49.404;8.248;2022-08-19T05:26:42;15.83;;;14.37;;
30147;SDS011;16960;49.404;8.248;2022-08-19T05:29:11;15.87;;;14.27;;
30147;SDS011;16960;49.404;8.248;2022-08-19T05:31:40;16.17;;;14.67;;
30147;SDS011;16960;49.404;8.248;2022-08-19T05:34:08;16.73;;;15.13;;
30147;SDS011;16960;49.404;8.248;2022-08-19T05:36:37;15.20;;;13.77;;
30147;SDS011;16960;49.404;8.248;2022-08-19T05:39:09;14.50;;;13.10;;
30147;SDS011;16960;49.404;8.248;2022-08-19T05:41:41;14.27;;;12.87;;
30147;SDS011;16960;49.404;8.248;2022-08-19T05:44:08;14.23;;;12.83;;
30147;SDS011;16960;49.404;8.248;2022-08-19T05:46:35;13.47;;;12.27;;
30147;SDS011;16960;49.404;8.248;2022-08-19T05:49:03;12.90;;;11.70;;
30147;SDS011;16960;49.404;8.248;2022-08-19T05:51:32;12.83;;;11.73;;
30147;SDS011;16960;49.404;8.248;2022-08-19T05:54:00;12.33;;;11.23;;
30147;SDS011;16960;49.404;8.248;2022-08-19T05:56:27;12.67;;;11.50;;
30147;SDS011;16960;49.404;8.248;2022-08-19T05:58:55;14.27;;;12.70;;
30147;SDS011;16960;49.404;8.248;2022-08-19T06:01:24;14.83;;;13.13;;
30147;SDS011;16960;49.404;8.248;2022-08-19T06:03:52;14.73;;;13.30;;
30147;SDS011;16960;49.404;8.248;2022-08-19T06:06:19;14.53;;;13.23;;
30147;SDS011;16960;49.404;8.248;2022-08-19T06:08:48;14.27;;;13.07;;
30147;SDS011;16960;49.404;8.248;2022-08-19T06:11:17;14.33;;;12.83;;
30147;SDS011;16960;49.404;8.248;2022-08-19T06:13:47;15.40;;;14.00;;
30147;SDS011;16960;49.404;8.248;2022-08-19T06:16:16;13.53;;;12.33;;
30147;SDS011;16960;49.404;8.248;2022-08-19T06:18:47;13.80;;;12.60;;
30147;SDS011;16960;49.404;8.248;2022-08-19T06:21:16;14.37;;;12.87;;
30147;SDS011;16960;49.404;8.248;2022-08-19T06:23:44;15.17;;;13.57;;
30147;SDS011;16960;49.404;8.248;2022-08-19T06:26:14;14.33;;;12.93;;
30147;SDS011;16960;49.404;8.248;2022-08-19T06:28:42;13.00;;;11.80;;
30147;SDS011;16960;49.404;8.248;2022-08-19T06:31:12;13.50;;;12.33;;
30147;SDS011;16960;49.404;8.248;2022-08-19T06:33:41;12.90;;;11.73;;
30147;SDS011;16960;49.404;8.248;2022-08-19T06:38:43;12.73;;;11.53;;
30147;SDS011;16960;49.404;8.248;2022-08-19T06:41:10;13.13;;;11.93;;
30147;SDS011;16960;49.404;8.248;2022-08-19T06:43:39;13.20;;;11.83;;
30147;SDS011;16960;49.404;8.248;2022-08-19T06:46:09;13.30;;;12.10;;
30147;SDS011;16960;49.404;8.248;2022-08-19T06:48:38;12.97;;;11.73;;
30147;SDS011;16960;49.404;8.248;2022-08-19T06:51:05;12.93;;;11.70;;
30147;SDS011;16960;49.404;8.248;2022-08-19T06:53:33;10.70;;;9.67;;
30147;SDS011;16960;49.404;8.248;2022-08-19T06:56:00;12.23;;;11.13;;
30147;SDS011;16960;49.404;8.248;2022-08-19T06:58:28;13.17;;;11.90;;
30147;SDS011;16960;49.404;8.248;2022-08-19T07:01:00;13.37;;;12.00;;
30147;SDS011;16960;49.404;8.248;2022-08-19T07:03:29;12.20;;;11.00;;
30147;SDS011;16960;49.404;8.248;2022-08-19T07:05:58;11.67;;;10.60;;
30147;SDS011;16960;49.404;8.248;2022-08-19T07:08:29;12.27;;;11.20;;
30147;SDS011;16960;49.404;8.248;2022-08-19T07:10:56;13.90;;;10.73;;
30147;SDS011;16960;49.404;8.248;2022-08-19T07:13:24;10.33;;;9.33;;
30147;SDS011;16960;49.404;8.248;2022-08-19T07:15:51;12.00;;;10.90;;
30147;SDS011;16960;49.404;8.248;2022-08-19T07:18:19;11.70;;;10.63;;
30147;SDS011;16960;49.404;8.248;2022-08-19T07:20:46;11.23;;;10.03;;
30147;SDS011;16960;49.404;8.248;2022-08-19T07:23:14;10.97;;;10.07;;
30147;SDS011;16960;49.404;8.248;2022-08-19T07:25:41;14.27;;;11.23;;
30147;SDS011;16960;49.404;8.248;2022-08-19T07:28:08;11.70;;;9.73;;
30147;SDS011;16960;49.404;8.248;2022-08-19T07:30:38;12.13;;;10.93;;
30147;SDS011;16960;49.404;8.248;2022-08-19T07:33:05;10.30;;;9.40;;
30147;SDS011;16960;49.404;8.248;2022-08-19T07:35:34;11.67;;;10.50;;
30147;SDS011;16960;49.404;8.248;2022-08-19T07:38:01;10.50;;;9.40;;
30147;SDS011;16960;49.404;8.248;2022-08-19T07:40:31;11.20;;;10.13;;
30147;SDS011;16960;49.404;8.248;2022-08-19T07:42:58;11.73;;;10.53;;
30147;SDS011;16960;49.404;8.248;2022-08-19T07:45:25;11.70;;;10.60;;
30147;SDS011;16960;49.404;8.248;2022-08-19T07:47:53;11.57;;;10.47;;
30147;SDS011;16960;49.404;8.248;2022-08-19T07:50:20;11.70;;;10.43;;
30147;SDS011;16960;49.404;8.248;2022-08-19T07:52:49;12.90;;;11.23;;
30147;SDS011;16960;49.404;8.248;2022-08-19T07:55:17;11.90;;;10.50;;
30147;SDS011;16960;49.404;8.248;2022-08-19T07:57:49;14.57;;;11.87;;
30147;SDS011;16960;49.404;8.248;2022-08-19T08:00:17;12.03;;;10.80;;
30147;SDS011;16960;49.404;8.248;2022-08-19T08:02:44;12.17;;;10.97;;
30147;SDS011;16960;49.404;8.248;2022-08-19T08:05:12;11.50;;;9.90;;
30147;SDS011;16960;49.404;8.248;2022-08-19T08:07:58;11.07;;;10.07;;
30147;SDS011;16960;49.404;8.248;2022-08-19T08:10:42;14.37;;;10.93;;
30147;SDS011;16960;49.404;8.248;2022-08-19T08:13:09;11.00;;;10.00;;
30147;SDS011;16960;49.404;8.248;2022-08-19T08:15:36;11.00;;;10.00;;
30147;SDS011;16960;49.404;8.248;2022-08-19T08:18:04;12.27;;;10.60;;
30147;SDS011;16960;49.404;8.248;2022-08-19T08:20:31;13.40;;;11.37;;
30147;SDS011;16960;49.404;8.248;2022-08-19T08:23:00;12.50;;;10.33;;
30147;SDS011;16960;49.404;8.248;2022-08-19T08:25:44;11.77;;;10.57;;
30147;SDS011;16960;49.404;8.248;2022-08-19T08:28:13;11.97;;;10.77;;
30147;SDS011;16960;49.404;8.248;2022-08-19T08:30:40;11.17;;;10.17;;
30147;SDS011;16960;49.404;8.248;2022-08-19T08:33:10;9.53;;;8.57;;
30147;SDS011;16960;49.404;8.248;2022-08-19T08:35:38;13.07;;;9.57;;
30147;SDS011;16960;49.404;8.248;2022-08-19T08:38:09;9.47;;;8.53;;
30147;SDS011;16960;49.404;8.248;2022-08-19T08:40:38;8.27;;;7.57;;
30147;SDS011;16960;49.404;8.248;2022-08-19T08:43:10;9.40;;;8.57;;
30147;SDS011;16960;49.404;8.248;2022-08-19T08:45:49;9.87;;;7.57;;
30147;SDS011;16960;49.404;8.248;2022-08-19T08:48:22;8.90;;;8.10;;
30147;SDS011;16960;49.404;8.248;2022-08-19T08:50:56;8.57;;;7.73;;
30147;SDS011;16960;49.404;8.248;2022-08-19T08:53:26;13.03;;;8.17;;
30147;SDS011;16960;49.404;8.248;2022-08-19T08:55:54;8.17;;;7.30;;
30147;SDS011;16960;49.404;8.248;2022-08-19T08:58:24;8.47;;;7.77;;
30147;SDS011;16960;49.404;8.248;2022-08-19T09:00:55;7.83;;;7.23;;
30147;SDS011;16960;49.404;8.248;2022-08-19T09:03:24;7.93;;;7.30;;
30147;SDS011;16960;49.404;8.248;2022-08-19T09:05:55;7.90;;;6.90;;
30147;SDS011;16960;49.404;8.248;2022-08-19T09:08:32;8.33;;;7.60;;
30147;SDS011;16960;49.404;8.248;2022-08-19T09:11:07;9.23;;;7.90;;
30147;SDS011;16960;49.404;8.248;2022-08-19T09:13:38;7.27;;;6.60;;
30147;SDS011;16960;49.404;8.248;2022-08-19T09:16:13;7.70;;;7.10;;
30147;SDS011;16960;49.404;8.248;2022-08-19T09:18:43;8.17;;;7.47;;
30147;SDS011;16960;49.404;8.248;2022-08-19T09:21:12;7.90;;;7.20;;
30147;SDS011;16960;49.404;8.248;2022-08-19T09:23:41;7.90;;;7.20;;
30147;SDS011;16960;49.404;8.248;2022-08-19T09:26:09;7.23;;;6.63;;
30147;SDS011;16960;49.404;8.248;2022-08-19T09:28:39;7.93;;;7.23;;
30147;SDS011;16960;49.404;8.248;2022-08-19T09:31:08;9.83;;;7.43;;
30147;SDS011;16960;49.404;8.248;2022-08-19T09:33:35;7.33;;;6.73;;
30147;SDS011;16960;49.404;8.248;2022-08-19T09:36:06;7.63;;;6.90;;
30147;SDS011;16960;49.404;8.248;2022-08-19T09:38:36;8.03;;;7.43;;
30147;SDS011;16960;49.404;8.248;2022-08-19T09:41:06;8.70;;;7.43;;
30147;SDS011;16960;49.404;8.248;2022-08-19T09:43:35;7.63;;;6.97;;
30147;SDS011;16960;49.404;8.248;2022-08-19T09:46:03;7.80;;;7.13;;
30147;SDS011;16960;49.404;8.248;2022-08-19T09:48:31;7.77;;;7.07;;
30147;SDS011;16960;49.404;8.248;2022-08-19T09:51:02;7.50;;;6.90;;
30147;SDS011;16960;49.404;8.248;2022-08-19T09:53:31;7.90;;;7.13;;
30147;SDS011;16960;49.404;8.248;2022-08-19T09:55:58;7.37;;;6.80;;
30147;SDS011;16960;49.404;8.248;2022-08-19T09:58:27;7.50;;;6.90;;
30147;SDS011;16960;49.404;8.248;2022-08-19T10:00:55;7.13;;;6.63;;
30147;SDS011;16960;49.404;8.248;2022-08-19T10:03:23;7.20;;;6.70;;
30147;SDS011;16960;49.404;8.248;2022-08-19T10:05:50;7.83;;;7.13;;
30147;SDS011;16960;49.404;8.248;2022-08-19T10:08:21;7.87;;;7.17;;
30147;SDS011;16960;49.404;8.248;2022-08-19T10:10:50;8.10;;;7.30;;
30147;SDS011;16960;49.404;8.248;2022-08-19T10:13:19;7.63;;;7.03;;
30147;SDS011;16960;49.404;8.248;2022-08-19T10:15:51;6.70;;;6.20;;
30147;SDS011;16960;49.404;8.248;2022-08-19T10:18:19;8.20;;;7.07;;
30147;SDS011;16960;49.404;8.248;2022-08-19T10:20:47;7.60;;;7.00;;
30147;SDS011;16960;49.404;8.248;2022-08-19T10:23:16;7.13;;;6.50;;
30147;SDS011;16960;49.404;8.248;2022-08-19T10:25:44;6.83;;;6.33;;
30147;SDS011;16960;49.404;8.248;2022-08-19T10:28:11;7.60;;;6.90;;
30147;SDS011;16960;49.404;8.248;2022-08-19T10:30:38;6.70;;;6.20;;
30147;SDS011;16960;49.404;8.248;2022-08-19T10:33:07;6.37;;;5.97;;
30147;SDS011;16960;49.404;8.248;2022-08-19T10:35:34;7.00;;;6.50;;
30147;SDS011;16960;49.404;8.248;2022-08-19T10:38:01;6.90;;;6.33;;
30147;SDS011;16960;49.404;8.248;2022-08-19T10:40:28;6.80;;;6.27;;
30147;SDS011;16960;49.404;8.248;2022-08-19T10:42:55;6.20;;;5.80;;
30147;SDS011;16960;49.404;8.248;2022-08-19T10:45:22;7.30;;;6.70;;
30147;SDS011;16960;49.404;8.248;2022-08-19T10:47:51;6.67;;;6.17;;
30147;SDS011;16960;49.404;8.248;2022-08-19T10:50:20;7.37;;;6.77;;
30147;SDS011;16960;49.404;8.248;2022-08-19T10:53:05;7.03;;;6.63;;
30147;SDS011;16960;49.404;8.248;2022-08-19T10:55:34;6.47;;;5.97;;
30147;SDS011;16960;49.404;8.248;2022-08-19T10:58:20;7.07;;;6.57;;
30147;SDS011;16960;49.404;8.248;2022-08-19T11:00:53;7.17;;;6.60;;
30147;SDS011;16960;49.404;8.248;2022-08-19T11:03:21;6.23;;;5.80;;
30147;SDS011;16960;49.404;8.248;2022-08-19T11:05:57;7.27;;;6.67;;
30147;SDS011;16960;49.404;8.248;2022-08-19T11:08:25;7.20;;;6.70;;
30147;SDS011;16960;49.404;8.248;2022-08-19T11:10:52;7.40;;;6.90;;
30147;SDS011;16960;49.404;8.248;2022-08-19T11:13:25;6.70;;;6.20;;
30147;SDS011;16960;49.404;8.248;2022-08-19T11:15:57;7.83;;;7.23;;
30147;SDS011;16960;49.404;8.248;2022-08-19T11:18:25;6.27;;;5.87;;
30147;SDS011;16960;49.404;8.248;2022-08-19T11:20:52;6.70;;;6.20;;
30147;SDS011;16960;49.404;8.248;2022-08-19T11:23:21;6.63;;;6.17;;
30147;SDS011;16960;49.404;8.248;2022-08-19T11:25:47;7.03;;;6.33;;
30147;SDS011;16960;49.404;8.248;2022-08-19T11:28:15;6.73;;;6.23;;
30147;SDS011;16960;49.404;8.248;2022-08-19T11:30:42;6.57;;;6.07;;
30147;SDS011;16960;49.404;8.248;2022-08-19T11:33:09;6.20;;;5.80;;
30147;SDS011;16960;49.404;8.248;2022-08-19T11:35:38;6.83;;;6.33;;
30147;SDS011;16960;49.404;8.248;2022-08-19T11:38:06;6.70;;;6.20;;
30147;SDS011;16960;49.404;8.248;2022-08-19T11:40:34;7.00;;;6.40;;
30147;SDS011;16960;49.404;8.248;2022-08-19T11:43:01;6.30;;;5.80;;
30147;SDS011;16960;49.404;8.248;2022-08-19T11:45:29;6.17;;;5.77;;
30147;SDS011;16960;49.404;8.248;2022-08-19T11:47:57;6.17;;;5.70;;
30147;SDS011;16960;49.404;8.248;2022-08-19T11:50:24;5.60;;;5.10;;
30147;SDS011;16960;49.404;8.248;2022-08-19T11:52:53;6.87;;;6.37;;
30147;SDS011;16960;49.404;8.248;2022-08-19T11:55:20;6.90;;;6.40;;
30147;SDS011;16960;49.404;8.248;2022-08-19T11:57:50;6.90;;;6.30;;
30147;SDS011;16960;49.404;8.248;2022-08-19T12:00:17;6.60;;;6.00;;
30147;SDS011;16960;49.404;8.248;2022-08-19T12:02:44;6.77;;;6.00;;
30147;SDS011;16960;49.404;8.248;2022-08-19T12:05:11;6.93;;;6.43;;
30147;SDS011;16960;49.404;8.248;2022-08-19T12:07:38;6.30;;;5.73;;
30147;SDS011;16960;49.404;8.248;2022-08-19T12:10:06;6.50;;;6.00;;
30147;SDS011;16960;49.404;8.248;2022-08-19T12:12:34;5.67;;;5.27;;
30147;SDS011;16960;49.404;8.248;2022-08-19T12:15:04;6.83;;;6.23;;
30147;SDS011;16960;49.404;8.248;2022-08-19T12:17:32;6.63;;;6.03;;
30147;SDS011;16960;49.404;8.248;2022-08-19T12:19:59;5.60;;;5.10;;
30147;SDS011;16960;49.404;8.248;2022-08-19T12:22:26;5.30;;;5.00;;
30147;SDS011;16960;49.404;8.248;2022-08-19T12:24:54;6.20;;;5.80;;
30147;SDS011;16960;49.404;8.248;2022-08-19T12:27:21;6.70;;;6.20;;
30147;SDS011;16960;49.404;8.248;2022-08-19T12:29:47;11.23;;;6.73;;
30147;SDS011;16960;49.404;8.248;2022-08-19T12:32:16;6.63;;;6.13;;
30147;SDS011;16960;49.404;8.248;2022-08-19T12:34:43;5.87;;;5.47;;
30147;SDS011;16960;49.404;8.248;2022-08-19T12:37:12;5.83;;;5.33;;
30147;SDS011;16960;49.404;8.248;2022-08-19T12:39:40;6.00;;;5.50;;
30147;SDS011;16960;49.404;8.248;2022-08-19T12:42:08;6.03;;;5.53;;
30147;SDS011;16960;49.404;8.248;2022-08-19T12:44:36;5.60;;;5.20;;
30147;SDS011;16960;49.404;8.248;2022-08-19T12:47:04;6.10;;;5.70;;
30147;SDS011;16960;49.404;8.248;2022-08-19T12:49:34;6.30;;;5.67;;
30147;SDS011;16960;49.404;8.248;2022-08-19T12:52:02;6.03;;;5.53;;
30147;SDS011;16960;49.404;8.248;2022-08-19T12:54:30;6.33;;;5.73;;
30147;SDS011;16960;49.404;8.248;2022-08-19T12:56:58;5.83;;;5.37;;
30147;SDS011;16960;49.404;8.248;2022-08-19T12:59:25;7.87;;;5.50;;
30147;SDS011;16960;49.404;8.248;2022-08-19T13:01:52;6.03;;;5.23;;
30147;SDS011;16960;49.404;8.248;2022-08-19T13:04:19;6.30;;;5.80;;
30147;SDS011;16960;49.404;8.248;2022-08-19T13:06:48;5.97;;;5.47;;
30147;SDS011;16960;49.404;8.248;2022-08-19T13:09:15;5.23;;;4.93;;
30147;SDS011;16960;49.404;8.248;2022-08-19T13:11:42;6.00;;;5.20;;
30147;SDS011;16960;49.404;8.248;2022-08-19T13:14:10;5.40;;;4.90;;
30147;SDS011;16960;49.404;8.248;2022-08-19T13:16:37;5.70;;;5.20;;
30147;SDS011;16960;49.404;8.248;2022-08-19T13:19:05;5.97;;;5.47;;
30147;SDS011;16960;49.404;8.248;2022-08-19T13:21:32;5.83;;;5.37;;
30147;SDS011;16960;49.404;8.248;2022-08-19T13:24:00;5.60;;;5.20;;
30147;SDS011;16960;49.404;8.248;2022-08-19T13:26:28;4.80;;;4.50;;
30147;SDS011;16960;49.404;8.248;2022-08-19T13:28:55;5.03;;;4.63;;
30147;SDS011;16960;49.404;8.248;2022-08-19T13:31:40;5.23;;;4.90;;
30147;SDS011;16960;49.404;8.248;2022-08-19T13:34:26;5.20;;;4.80;;
30147;SDS011;16960;49.404;8.248;2022-08-19T13:36:55;5.70;;;5.30;;
30147;SDS011;16960;49.404;8.248;2022-08-19T13:39:24;5.87;;;5.37;;
30147;SDS011;16960;49.404;8.248;2022-08-19T13:41:52;5.03;;;4.73;;
30147;SDS011;16960;49.404;8.248;2022-08-19T13:44:19;5.10;;;4.80;;
30147;SDS011;16960;49.404;8.248;2022-08-19T13:46:46;5.60;;;5.10;;
30147;SDS011;16960;49.404;8.248;2022-08-19T13:49:18;5.07;;;4.77;;
30147;SDS011;16960;49.404;8.248;2022-08-19T13:51:46;5.07;;;4.73;;
30147;SDS011;16960;49.404;8.248;2022-08-19T13:54:13;4.70;;;4.40;;
30147;SDS011;16960;49.404;8.248;2022-08-19T13:56:42;5.80;;;5.30;;
30147;SDS011;16960;49.404;8.248;2022-08-19T13:59:11;5.97;;;5.50;;
30147;SDS011;16960;49.404;8.248;2022-08-19T14:01:38;5.67;;;5.17;;
30147;SDS011;16960;49.404;8.248;2022-08-19T14:04:06;5.27;;;4.97;;
30147;SDS011;16960;49.404;8.248;2022-08-19T14:06:34;4.97;;;4.57;;
30147;SDS011;16960;49.404;8.248;2022-08-19T14:09:01;5.40;;;5.00;;
30147;SDS011;16960;49.404;8.248;2022-08-19T14:11:28;4.90;;;4.60;;
30147;SDS011;16960;49.404;8.248;2022-08-19T14:13:57;5.83;;;5.33;;
30147;SDS011;16960;49.404;8.248;2022-08-19T14:16:24;5.40;;;5.03;;
30147;SDS011;16960;49.404;8.248;2022-08-19T14:18:52;5.07;;;4.77;;
30147;SDS011;16960;49.404;8.248;2022-08-19T14:21:20;5.23;;;4.83;;
30147;SDS011;16960;49.404;8.248;2022-08-19T14:23:50;4.93;;;4.63;;
30147;SDS011;16960;49.404;8.248;2022-08-19T14:26:17;5.23;;;4.90;;
30147;SDS011;16960;49.404;8.248;2022-08-19T14:28:45;4.57;;;4.27;;
30147;SDS011;16960;49.404;8.248;2022-08-19T14:31:14;5.73;;;5.13;;
30147;SDS011;16960;49.404;8.248;2022-08-19T14:33:44;4.87;;;4.57;;
30147;SDS011;16960;49.404;8.248;2022-08-19T14:36:11;5.17;;;4.67;;
30147;SDS011;16960;49.404;8.248;2022-08-19T14:38:38;5.30;;;5.00;;
30147;SDS011;16960;49.404;8.248;2022-08-19T14:41:09;4.93;;;4.43;;
30147;SDS011;16960;49.404;8.248;2022-08-19T14:43:38;6.03;;;4.87;;
30147;SDS011;16960;49.404;8.248;2022-08-19T14:46:06;5.20;;;4.80;;